createdAt,value
2017-11-13T00:02:27.484Z,12.35
2017-11-13T00:04:55.115Z,12.40
2017-11-13T00:07:22.924Z,12.24
2017-11-13T00:09:50.623Z,12.11
2017-11-13T00:12:18.645Z,12.03
2017-11-13T00:14:46.471Z,12.02
2017-11-13T00:17:14.219Z,11.77
2017-11-13T00:19:41.770Z,11.95
2017-11-13T00:22:09.492Z,11.97
2017-11-13T00:24:37.096Z,11.90
2017-11-13T00:27:04.681Z,11.92
2017-11-13T00:29:32.284Z,11.83
2017-11-13T00:31:59.907Z,11.79
2017-11-13T00:34:27.574Z,11.73
2017-11-13T00:36:55.192Z,11.81
2017-11-13T00:39:23.017Z,11.39
2017-11-13T00:41:50.639Z,11.67
2017-11-13T00:44:18.275Z,11.55
2017-11-13T00:46:46.474Z,11.66
2017-11-13T00:49:14.092Z,11.65
2017-11-13T00:51:41.699Z,11.47
2017-11-13T00:54:09.355Z,11.57
2017-11-13T00:56:36.946Z,11.54
2017-11-13T00:59:04.612Z,11.70
2017-11-13T01:01:32.251Z,11.64
2017-11-13T01:04:00.041Z,11.62
2017-11-13T01:06:27.806Z,11.68
2017-11-13T01:08:55.474Z,11.62
2017-11-13T01:11:24.752Z,11.71
2017-11-13T01:13:52.682Z,11.68
2017-11-13T01:16:20.419Z,11.68
2017-11-13T01:18:48.362Z,11.66
2017-11-13T01:21:16.029Z,11.68
2017-11-13T01:23:43.749Z,11.70
2017-11-13T01:26:11.504Z,11.72
2017-11-13T01:28:39.153Z,11.66
2017-11-13T01:31:06.765Z,11.69
2017-11-13T01:33:34.390Z,11.61
2017-11-13T01:36:02.104Z,11.62
2017-11-13T01:38:29.830Z,11.60
2017-11-13T01:40:57.601Z,11.64
2017-11-13T01:43:26.501Z,11.73
2017-11-13T01:45:54.117Z,11.73
2017-11-13T01:48:21.662Z,11.73
2017-11-13T01:50:49.346Z,11.61
2017-11-13T01:53:17.953Z,11.65
2017-11-13T01:55:45.579Z,11.61
2017-11-13T01:58:13.241Z,11.65
2017-11-13T02:00:41.324Z,11.61
2017-11-13T02:03:09.056Z,11.48
2017-11-13T02:05:36.786Z,11.59
2017-11-13T02:08:04.497Z,11.56
2017-11-13T02:10:32.096Z,11.58
2017-11-13T02:12:59.732Z,11.47
2017-11-13T02:15:27.364Z,11.37
2017-11-13T02:17:55.043Z,11.42
2017-11-13T02:20:22.720Z,11.43
2017-11-13T02:22:50.424Z,11.52
2017-11-13T02:25:18.067Z,11.39
2017-11-13T02:27:45.806Z,11.24
2017-11-13T02:30:13.559Z,11.27
2017-11-13T02:32:41.205Z,11.29
2017-11-13T02:35:08.821Z,11.15
2017-11-13T02:37:36.520Z,11.11
2017-11-13T02:40:04.112Z,11.27
2017-11-13T02:42:31.728Z,11.33
2017-11-13T02:44:59.606Z,11.30
2017-11-13T02:47:27.276Z,11.25
2017-11-13T02:49:54.862Z,11.18
2017-11-13T02:52:23.161Z,11.21
2017-11-13T02:54:50.821Z,11.16
2017-11-13T02:57:19.268Z,11.03
2017-11-13T02:59:46.876Z,11.05
2017-11-13T03:02:14.504Z,10.97
2017-11-13T03:04:42.114Z,10.85
2017-11-13T03:07:09.885Z,10.90
2017-11-13T03:09:37.521Z,10.89
2017-11-13T03:12:05.325Z,10.91
2017-11-13T03:14:32.874Z,10.84
2017-11-13T03:17:00.572Z,10.89
2017-11-13T03:19:28.118Z,10.93
2017-11-13T03:21:55.885Z,10.93
2017-11-13T03:24:23.483Z,10.96
2017-11-13T03:26:51.098Z,10.81
2017-11-13T03:29:18.727Z,10.76
2017-11-13T03:31:46.965Z,10.88
2017-11-13T03:34:14.734Z,10.86
2017-11-13T03:36:42.388Z,10.79
2017-11-13T03:39:10.016Z,10.87
2017-11-13T03:41:38.397Z,10.94
2017-11-13T03:44:06.183Z,10.81
2017-11-13T03:46:33.813Z,10.74
2017-11-13T03:49:01.353Z,10.86
2017-11-13T03:51:28.924Z,10.88
2017-11-13T03:53:56.541Z,10.85
2017-11-13T03:56:24.105Z,10.90
2017-11-13T03:58:51.660Z,10.87
2017-11-13T04:01:19.241Z,10.87
2017-11-13T04:03:47.034Z,10.78
2017-11-13T04:06:14.732Z,10.85
2017-11-13T04:08:42.392Z,11.00
2017-11-13T04:11:10.021Z,11.06
2017-11-13T04:13:37.855Z,10.94
2017-11-13T04:16:05.478Z,11.12
2017-11-13T04:18:33.092Z,11.09
2017-11-13T04:21:01.654Z,11.08
2017-11-13T04:23:29.630Z,11.25
2017-11-13T04:25:57.978Z,11.13
2017-11-13T04:28:25.512Z,11.15
2017-11-13T04:30:53.153Z,11.26
2017-11-13T04:33:20.939Z,11.41
2017-11-13T04:35:48.524Z,11.58
2017-11-13T04:38:16.117Z,11.52
2017-11-13T04:40:43.681Z,11.17
2017-11-13T04:43:11.439Z,11.05
2017-11-13T04:45:39.106Z,11.06
2017-11-13T04:48:06.744Z,11.18
2017-11-13T04:50:34.380Z,11.10
2017-11-13T04:53:02.006Z,11.25
2017-11-13T04:55:31.361Z,11.31
2017-11-13T04:57:58.992Z,11.40
2017-11-13T05:00:26.624Z,11.30
2017-11-13T05:02:54.261Z,11.37
2017-11-13T05:05:22.676Z,11.29
2017-11-13T05:07:50.319Z,11.49
2017-11-13T05:10:17.928Z,12.11
2017-11-13T05:12:45.524Z,11.75
2017-11-13T05:15:13.166Z,11.90
2017-11-13T05:17:40.935Z,11.84
2017-11-13T05:20:08.566Z,11.91
2017-11-13T05:22:36.235Z,11.94
2017-11-13T05:25:03.867Z,11.82
2017-11-13T05:27:32.203Z,11.93
2017-11-13T05:29:59.904Z,11.99
2017-11-13T05:32:27.552Z,11.98
2017-11-13T05:34:55.507Z,11.96
2017-11-13T05:37:23.117Z,12.17
2017-11-13T05:39:50.872Z,11.89
2017-11-13T05:42:18.429Z,12.05
2017-11-13T05:44:46.025Z,11.87
2017-11-13T05:47:13.669Z,11.98
2017-11-13T05:49:41.257Z,12.00
2017-11-13T05:52:09.138Z,11.88
2017-11-13T05:54:36.744Z,11.85
2017-11-13T05:57:04.355Z,11.60
2017-11-13T05:59:32.145Z,11.66
2017-11-13T06:01:59.759Z,11.76
2017-11-13T06:04:27.544Z,11.73
2017-11-13T06:06:55.143Z,11.86
2017-11-13T06:09:22.721Z,12.15
2017-11-13T06:11:50.269Z,12.02
2017-11-13T06:14:18.204Z,12.08
2017-11-13T06:16:46.048Z,12.34
2017-11-13T06:19:13.662Z,12.44
2017-11-13T06:21:41.291Z,12.89
2017-11-13T06:24:08.987Z,12.63
2017-11-13T06:26:36.612Z,13.45
2017-11-13T06:29:04.163Z,13.19
2017-11-13T06:31:31.748Z,14.52
2017-11-13T06:33:59.288Z,14.79
2017-11-13T06:36:27.037Z,15.65
2017-11-13T06:38:54.697Z,16.53
2017-11-13T06:41:22.232Z,17.05
2017-11-13T06:43:49.825Z,17.63
2017-11-13T06:46:17.433Z,18.27
2017-11-13T06:48:45.084Z,17.60
2017-11-13T06:51:12.943Z,18.49
2017-11-13T06:53:40.546Z,18.81
2017-11-13T06:56:08.091Z,17.83
2017-11-13T06:58:35.663Z,18.72
2017-11-13T07:01:03.235Z,19.82
2017-11-13T07:03:31.509Z,20.42
2017-11-13T07:05:59.689Z,20.29
2017-11-13T07:08:27.408Z,20.75
2017-11-13T07:10:55.004Z,20.95
2017-11-13T07:13:22.662Z,21.06
2017-11-13T07:15:52.120Z,21.38
2017-11-13T07:18:20.247Z,21.72
2017-11-13T07:20:48.789Z,21.99
2017-11-13T07:23:16.461Z,21.21
2017-11-13T07:25:44.378Z,21.82
2017-11-13T07:28:11.940Z,20.37
2017-11-13T07:30:39.587Z,20.84
2017-11-13T07:33:07.371Z,20.50
2017-11-13T07:35:34.908Z,21.58
2017-11-13T07:38:07.911Z,22.52
2017-11-13T07:40:38.387Z,22.58
2017-11-13T07:43:07.903Z,22.13
2017-11-13T07:45:38.839Z,24.16
2017-11-13T07:48:18.608Z,22.48
2017-11-13T07:50:46.236Z,24.05
2017-11-13T07:53:13.823Z,24.36
2017-11-13T07:55:41.400Z,23.41
2017-11-13T07:58:08.939Z,23.27
2017-11-13T08:00:36.528Z,23.42
2017-11-13T08:03:04.066Z,24.05
2017-11-13T08:05:31.709Z,23.92
2017-11-13T08:07:59.353Z,21.64
2017-11-13T08:10:27.479Z,23.90
2017-11-13T08:12:55.887Z,24.04
2017-11-13T08:15:23.497Z,23.27
2017-11-13T08:17:51.256Z,22.62
2017-11-13T08:20:18.818Z,23.19
2017-11-13T08:22:46.500Z,23.56
2017-11-13T08:25:14.040Z,23.07
2017-11-13T08:27:41.866Z,22.65
2017-11-13T08:30:10.086Z,22.36
2017-11-13T08:32:38.437Z,23.59
2017-11-13T08:35:07.676Z,23.15
2017-11-13T08:37:35.358Z,23.73
2017-11-13T08:40:03.211Z,23.79
2017-11-13T08:42:31.718Z,23.62
2017-11-13T08:45:00.088Z,22.70
2017-11-13T08:47:28.491Z,23.49
2017-11-13T08:49:56.199Z,22.56
2017-11-13T08:52:23.904Z,23.22
2017-11-13T08:54:51.531Z,22.78
2017-11-13T08:57:19.327Z,22.92
2017-11-13T08:59:47.447Z,22.39
2017-11-13T09:02:15.430Z,21.91
2017-11-13T09:04:43.027Z,21.83
2017-11-13T09:07:10.633Z,21.80
2017-11-13T09:09:38.244Z,21.12
2017-11-13T09:12:05.862Z,20.95
2017-11-13T09:14:33.510Z,20.78
2017-11-13T09:17:01.187Z,20.83
2017-11-13T09:19:28.796Z,20.52
2017-11-13T09:21:56.400Z,20.71
2017-11-13T09:24:24.029Z,21.05
2017-11-13T09:26:51.637Z,21.38
2017-11-13T09:29:19.244Z,20.96
2017-11-13T09:31:46.897Z,21.53
2017-11-13T09:34:14.444Z,21.64
2017-11-13T09:39:15.669Z,20.25
2017-11-13T09:41:45.478Z,20.09
2017-11-13T09:47:43.720Z,20.17
2017-11-13T09:50:11.514Z,19.73
2017-11-13T09:52:40.261Z,19.44
2017-11-13T09:55:13.804Z,19.05
2017-11-13T09:57:42.332Z,18.27
2017-11-13T10:00:17.815Z,18.72
2017-11-13T10:02:47.203Z,18.53
2017-11-13T10:05:16.779Z,18.21
2017-11-13T10:07:46.996Z,18.55
2017-11-13T10:10:15.360Z,17.93
2017-11-13T10:12:43.844Z,18.00
2017-11-13T10:15:11.417Z,18.43
2017-11-13T10:17:39.042Z,18.30
2017-11-13T10:20:06.665Z,19.02
2017-11-13T10:22:34.417Z,19.22
2017-11-13T10:25:02.252Z,18.46
2017-11-13T10:27:29.899Z,18.99
2017-11-13T10:29:57.727Z,18.83
2017-11-13T10:32:25.491Z,18.79
2017-11-13T10:34:53.024Z,18.71
2017-11-13T10:37:20.616Z,18.99
2017-11-13T10:39:48.234Z,18.43
2017-11-13T10:42:15.813Z,18.79
2017-11-13T10:44:44.734Z,18.74
2017-11-13T10:47:12.361Z,18.98
2017-11-13T10:49:40.884Z,19.06
2017-11-13T10:52:08.658Z,19.13
2017-11-13T10:54:37.385Z,19.27
2017-11-13T10:57:05.015Z,19.27
2017-11-13T10:59:32.612Z,19.44
2017-11-13T11:02:00.267Z,19.32
2017-11-13T11:04:30.090Z,19.50
2017-11-13T11:06:57.765Z,19.52
2017-11-13T11:09:25.973Z,19.56
2017-11-13T11:11:54.157Z,19.69
2017-11-13T11:14:35.478Z,19.57
2017-11-13T11:17:18.031Z,19.68
2017-11-13T11:19:49.667Z,19.53
2017-11-13T11:22:31.104Z,19.54
2017-11-13T11:24:58.760Z,19.41
2017-11-13T11:27:30.004Z,19.05
2017-11-13T11:30:00.080Z,18.90
2017-11-13T11:32:30.269Z,18.41
2017-11-13T11:35:03.405Z,18.39
2017-11-13T11:37:33.081Z,18.64
2017-11-13T11:40:00.876Z,18.49
2017-11-13T11:42:29.517Z,18.42
2017-11-13T11:44:57.666Z,18.41
2017-11-13T11:47:25.994Z,18.42
2017-11-13T11:49:53.607Z,18.34
2017-11-13T11:52:21.301Z,18.15
2017-11-13T11:54:50.817Z,18.07
2017-11-13T11:57:20.921Z,18.47
2017-11-13T11:59:49.446Z,18.40
2017-11-13T12:02:17.113Z,18.27
2017-11-13T12:04:44.757Z,18.06
2017-11-13T12:07:12.409Z,18.18
2017-11-13T12:09:40.027Z,18.07
2017-11-13T12:12:07.812Z,17.92
2017-11-13T12:14:35.428Z,17.74
2017-11-13T12:17:03.173Z,18.00
2017-11-13T12:19:30.730Z,17.85
2017-11-13T12:21:58.323Z,17.81
2017-11-13T12:24:25.914Z,17.73
2017-11-13T12:26:53.560Z,17.76
2017-11-13T12:29:21.359Z,17.74
2017-11-13T12:31:49.084Z,17.37
2017-11-13T12:34:16.671Z,17.63
2017-11-13T12:36:44.281Z,17.45
2017-11-13T12:39:12.049Z,17.49
2017-11-13T12:41:39.611Z,17.72
2017-11-13T12:44:07.237Z,17.50
2017-11-13T12:46:35.755Z,17.47
2017-11-13T12:49:03.524Z,17.52
2017-11-13T12:51:31.902Z,17.46
2017-11-13T12:53:59.582Z,17.35
2017-11-13T12:56:27.476Z,17.47
2017-11-13T12:58:55.280Z,17.32
2017-11-13T13:01:22.972Z,17.51
2017-11-13T13:03:50.557Z,17.50
2017-11-13T13:06:18.171Z,17.63
2017-11-13T13:08:45.860Z,17.65
2017-11-13T13:11:13.418Z,17.70
2017-11-13T13:13:41.039Z,17.28
2017-11-13T13:16:08.623Z,17.78
2017-11-13T13:18:36.197Z,17.52
2017-11-13T13:21:04.059Z,17.59
2017-11-13T13:23:31.653Z,17.65
2017-11-13T13:25:59.224Z,17.75
2017-11-13T13:28:27.010Z,17.64
2017-11-13T13:30:55.415Z,17.69
2017-11-13T13:33:23.015Z,17.63
2017-11-13T13:35:51.412Z,17.60
2017-11-13T13:38:19.098Z,17.51
2017-11-13T13:40:46.878Z,17.65
2017-11-13T13:43:14.906Z,17.40
2017-11-13T13:45:42.824Z,17.63
2017-11-13T13:48:10.424Z,17.69
2017-11-13T13:50:38.217Z,17.48
2017-11-13T13:53:05.902Z,17.73
2017-11-13T13:55:33.522Z,17.59
2017-11-13T13:58:01.160Z,17.57
2017-11-13T14:00:28.816Z,17.56
2017-11-13T14:02:56.638Z,17.47
2017-11-13T14:05:24.236Z,17.46
2017-11-13T14:07:51.847Z,17.56
2017-11-13T14:10:19.459Z,17.17
2017-11-13T14:12:47.107Z,17.24
2017-11-13T14:15:14.747Z,17.20
2017-11-13T14:17:42.338Z,17.17
2017-11-13T14:20:10.102Z,17.05
2017-11-13T14:22:37.919Z,16.92
2017-11-13T14:25:06.144Z,16.90
2017-11-13T14:27:33.743Z,16.76
2017-11-13T14:30:01.383Z,16.62
2017-11-13T14:32:28.982Z,16.79
2017-11-13T14:34:56.530Z,16.59
2017-11-13T14:37:24.127Z,16.61
2017-11-13T14:39:51.720Z,16.71
2017-11-13T14:42:19.271Z,16.75
2017-11-13T14:44:47.051Z,16.69
2017-11-13T14:47:14.733Z,16.70
2017-11-13T14:49:42.390Z,16.59
2017-11-13T14:52:10.227Z,16.36
2017-11-13T14:54:37.834Z,16.52
2017-11-13T14:57:05.434Z,16.33
2017-11-13T14:59:33.013Z,16.32
2017-11-13T15:02:00.609Z,16.18
2017-11-13T15:04:28.228Z,16.10
2017-11-13T15:06:55.805Z,16.07
2017-11-13T15:09:23.445Z,16.03
2017-11-13T15:11:50.991Z,16.03
2017-11-13T15:14:18.532Z,15.98
2017-11-13T15:16:46.147Z,16.07
2017-11-13T15:19:13.703Z,15.99
2017-11-13T15:21:41.523Z,16.06
2017-11-13T15:24:09.121Z,16.22
2017-11-13T15:26:36.925Z,16.28
2017-11-13T15:29:04.562Z,16.21
2017-11-13T15:31:32.273Z,16.31
2017-11-13T15:34:00.068Z,16.33
2017-11-13T15:36:27.838Z,16.26
2017-11-13T15:38:55.423Z,15.93
2017-11-13T15:41:23.020Z,16.13
2017-11-13T15:43:50.572Z,15.96
2017-11-13T15:46:18.211Z,15.80
2017-11-13T15:48:45.959Z,15.77
2017-11-13T15:51:13.780Z,15.72
2017-11-13T15:53:41.414Z,15.82
2017-11-13T15:56:08.952Z,15.95
2017-11-13T15:58:36.718Z,15.99
2017-11-13T16:01:04.342Z,15.85
2017-11-13T16:03:31.906Z,15.60
2017-11-13T16:05:59.522Z,15.60
2017-11-13T16:08:27.178Z,15.44
2017-11-13T16:10:54.943Z,15.64
2017-11-13T16:13:22.572Z,15.49
2017-11-13T16:15:50.198Z,15.46
2017-11-13T16:18:17.754Z,15.32
2017-11-13T16:20:45.596Z,15.28
2017-11-13T16:23:13.287Z,15.17
2017-11-13T16:25:41.083Z,15.37
2017-11-13T16:28:08.723Z,14.99
2017-11-13T16:30:36.332Z,15.09
2017-11-13T16:33:04.172Z,15.16
2017-11-13T16:35:31.754Z,15.28
2017-11-13T16:37:59.368Z,15.26
2017-11-13T16:40:26.989Z,15.36
2017-11-13T16:42:54.638Z,15.23
2017-11-13T16:45:22.367Z,15.30
2017-11-13T16:47:49.932Z,15.57
2017-11-13T16:50:17.558Z,15.47
2017-11-13T16:52:45.137Z,15.55
2017-11-13T16:55:12.912Z,15.38
2017-11-13T16:57:41.050Z,15.52
2017-11-13T17:00:08.904Z,15.67
2017-11-13T17:02:36.524Z,15.80
2017-11-13T17:05:04.788Z,15.76
2017-11-13T17:07:32.364Z,15.59
2017-11-13T17:09:59.939Z,15.32
2017-11-13T17:12:27.496Z,15.68
2017-11-13T17:14:55.184Z,15.56
2017-11-13T17:17:22.745Z,15.37
2017-11-13T17:19:51.179Z,15.35
2017-11-13T17:22:18.824Z,15.42
2017-11-13T17:24:46.344Z,15.58
2017-11-13T17:27:13.940Z,15.65
2017-11-13T17:29:42.293Z,15.81
2017-11-13T17:32:09.928Z,15.72
2017-11-13T17:34:37.492Z,15.75
2017-11-13T17:37:05.063Z,15.67
2017-11-13T17:39:32.654Z,15.63
2017-11-13T17:42:00.418Z,15.63
2017-11-13T17:44:28.017Z,15.34
2017-11-13T17:46:55.631Z,15.50
2017-11-13T17:49:23.212Z,15.48
2017-11-13T17:51:50.740Z,15.33
2017-11-13T17:54:18.764Z,15.50
2017-11-13T17:56:46.449Z,15.46
2017-11-13T17:59:14.011Z,15.21
2017-11-13T18:01:41.640Z,15.47
2017-11-13T18:04:09.224Z,15.45
2017-11-13T18:06:38.040Z,15.51
2017-11-13T18:09:05.796Z,15.50
2017-11-13T18:11:34.338Z,15.51
2017-11-13T18:14:01.886Z,15.22
2017-11-13T18:16:29.532Z,15.04
2017-11-13T18:18:58.046Z,15.27
2017-11-13T18:21:25.634Z,15.50
2017-11-13T18:23:53.469Z,15.41
2017-11-13T18:26:21.087Z,15.54
2017-11-13T18:28:48.624Z,15.67
2017-11-13T18:31:16.334Z,15.58
2017-11-13T18:33:43.910Z,15.66
2017-11-13T18:36:11.468Z,15.43
2017-11-13T18:38:39.060Z,15.55
2017-11-13T18:41:06.658Z,15.68
2017-11-13T18:43:34.329Z,15.60
2017-11-13T18:46:01.992Z,15.65
2017-11-13T18:48:29.566Z,15.55
2017-11-13T18:50:57.327Z,15.70
2017-11-13T18:53:25.321Z,15.80
2017-11-13T18:55:52.971Z,15.82
2017-11-13T18:58:20.525Z,15.88
2017-11-13T19:00:48.708Z,16.01
2017-11-13T19:03:18.043Z,15.99
2017-11-13T19:05:45.595Z,15.91
2017-11-13T19:08:13.209Z,15.80
2017-11-13T19:10:40.773Z,15.88
2017-11-13T19:13:08.372Z,15.97
2017-11-13T19:15:36.009Z,15.85
2017-11-13T19:18:03.641Z,15.86
2017-11-13T19:20:31.242Z,15.84
2017-11-13T19:22:58.879Z,15.84
2017-11-13T19:25:26.679Z,15.76
2017-11-13T19:27:54.270Z,15.82
2017-11-13T19:30:21.864Z,15.79
2017-11-13T19:32:49.508Z,15.81
2017-11-13T19:35:17.108Z,15.68
2017-11-13T19:37:44.808Z,15.15
2017-11-13T19:40:12.358Z,15.62
2017-11-13T19:42:40.151Z,15.49
2017-11-13T19:45:08.212Z,15.30
2017-11-13T19:47:36.834Z,15.01
2017-11-13T19:50:04.734Z,15.42
2017-11-13T19:52:32.312Z,15.56
2017-11-13T19:54:59.922Z,15.55
2017-11-13T19:57:27.474Z,15.62
2017-11-13T19:59:55.092Z,15.41
2017-11-13T20:02:22.773Z,15.51
2017-11-13T20:04:50.369Z,15.64
2017-11-13T20:07:18.918Z,15.61
2017-11-13T20:09:46.536Z,15.56
2017-11-13T20:12:14.182Z,15.28
2017-11-13T20:14:41.767Z,15.21
2017-11-13T20:17:09.501Z,14.93
2017-11-13T20:19:37.053Z,14.83
2017-11-13T20:22:04.630Z,15.00
2017-11-13T20:24:32.257Z,15.13
2017-11-13T20:26:59.849Z,15.44
2017-11-13T20:29:27.465Z,15.01
2017-11-13T20:31:55.075Z,14.88
2017-11-13T20:34:22.686Z,14.87
2017-11-13T20:36:50.320Z,14.91
2017-11-13T20:39:17.919Z,14.92
2017-11-13T20:41:45.515Z,14.93
2017-11-13T20:44:13.157Z,15.12
2017-11-13T20:46:40.845Z,14.95
2017-11-13T20:49:08.492Z,14.87
2017-11-13T20:51:37.344Z,14.97
2017-11-13T20:54:05.474Z,14.91
2017-11-13T20:56:33.291Z,15.08
2017-11-13T20:59:00.899Z,15.36
2017-11-13T21:01:29.349Z,15.09
2017-11-13T21:03:57.184Z,15.03
2017-11-13T21:06:24.756Z,14.76
2017-11-13T21:08:52.369Z,14.78
2017-11-13T21:11:20.177Z,14.40
2017-11-13T21:13:47.759Z,14.66
2017-11-13T21:16:15.367Z,14.78
2017-11-13T21:18:43.774Z,14.61
2017-11-13T21:21:11.316Z,14.55
2017-11-13T21:23:38.930Z,14.39
2017-11-13T21:26:07.340Z,14.40
2017-11-13T21:28:34.986Z,14.21
2017-11-13T21:31:03.459Z,14.08
2017-11-13T21:33:31.046Z,14.20
2017-11-13T21:35:58.639Z,14.05
2017-11-13T21:38:26.292Z,13.69
2017-11-13T21:40:54.149Z,13.85
2017-11-13T21:43:21.980Z,13.80
2017-11-13T21:45:49.767Z,13.96
2017-11-13T21:48:17.408Z,13.88
2017-11-13T21:50:45.020Z,14.07
2017-11-13T21:53:12.615Z,14.13
2017-11-13T21:55:40.286Z,14.19
2017-11-13T21:58:07.879Z,14.23
2017-11-13T22:00:35.463Z,14.26
2017-11-13T22:03:03.017Z,14.35
2017-11-13T22:05:30.781Z,14.46
2017-11-13T22:07:58.680Z,14.52
2017-11-13T22:10:27.391Z,14.62
2017-11-13T22:12:54.933Z,14.75
2017-11-13T22:15:22.511Z,14.78
2017-11-13T22:17:50.061Z,14.60
2017-11-13T22:20:23.162Z,14.53
2017-11-13T22:22:50.756Z,14.67
2017-11-13T22:25:18.310Z,14.69
2017-11-13T22:27:45.860Z,14.56
2017-11-13T22:30:13.575Z,14.75
2017-11-13T22:32:41.100Z,14.53
2017-11-13T22:35:08.723Z,14.61
2017-11-13T22:37:36.299Z,14.71
2017-11-13T22:40:03.867Z,14.38
2017-11-13T22:42:31.446Z,14.67
2017-11-13T22:44:59.126Z,14.68
2017-11-13T22:47:26.699Z,14.84
2017-11-13T22:49:54.234Z,14.83
2017-11-13T22:52:21.841Z,14.80
2017-11-13T22:54:49.424Z,14.75
2017-11-13T22:57:17.023Z,14.68
2017-11-13T22:59:44.594Z,14.51
2017-11-13T23:02:12.276Z,14.77
2017-11-13T23:04:39.824Z,15.08
2017-11-13T23:07:07.626Z,15.07
2017-11-13T23:09:35.200Z,14.78
2017-11-13T23:12:02.734Z,14.75
2017-11-13T23:14:30.296Z,14.76
2017-11-13T23:16:57.944Z,14.80
2017-11-13T23:19:25.515Z,14.84
2017-11-13T23:21:53.047Z,14.58
2017-11-13T23:24:20.619Z,14.36
2017-11-13T23:26:48.142Z,14.51
2017-11-13T23:29:15.660Z,14.34
2017-11-13T23:31:43.253Z,14.40
2017-11-13T23:34:10.771Z,14.70
2017-11-13T23:36:39.240Z,14.81
2017-11-13T23:39:07.475Z,14.71
2017-11-13T23:41:35.029Z,14.53
2017-11-13T23:44:02.554Z,14.63
2017-11-13T23:46:30.259Z,14.54
2017-11-13T23:48:57.802Z,14.02
2017-11-13T23:51:25.356Z,14.18
2017-11-13T23:53:53.009Z,13.95
2017-11-13T23:56:20.593Z,13.96
2017-11-13T23:58:48.217Z,14.07
